Time;durP1;ratioP1;P1;durP2;ratioP2;P2;SDS_P1;SDS_P2;PMS_P1;PMS_P2;Temp;Humidity;BMP_temperature;BMP_pressure;BME280_temperature;BME280_humidity;BME280_pressure;Samples;Min_cycle;Max_cycle;Signal;HPM_P1;HPM_P2
2023/08/14 00:00:59;;;;;;;17.25;11.13;;;23.70;86.40;;;;;;5094096;28;20384;-68
2023/08/14 00:04:03;;;;;;;19.63;12.05;;;23.60;86.90;;;;;;5093820;28;20071;-68
2023/08/14 00:07:08;;;;;;;16.30;11.07;;;23.40;86.90;;;;;;5093769;28;20051;-68
2023/08/14 00:10:11;;;;;;;14.60;10.25;;;23.50;87.40;;;;;;5093809;28;20190;-68
2023/08/14 00:13:19;;;;;;;15.25;9.52;;;23.70;85.10;;;;;;5093550;28;20047;-68
2023/08/14 00:16:24;;;;;;;10.85;8.85;;;23.70;85.20;;;;;;5093507;28;20416;-68
2023/08/14 00:19:28;;;;;;;18.65;9.27;;;23.80;83.90;;;;;;5093615;28;20043;-68
2023/08/14 00:22:32;;;;;;;12.90;9.63;;;23.80;85.00;;;;;;5094090;28;20079;-68
2023/08/14 00:25:36;;;;;;;14.02;8.73;;;23.90;84.00;;;;;;5092884;28;20051;-67
2023/08/14 00:28:40;;;;;;;14.95;9.60;;;23.70;84.50;;;;;;5093247;28;20400;-68
2023/08/14 00:31:44;;;;;;;11.35;9.15;;;23.60;84.90;;;;;;5092359;28;20042;-68
2023/08/14 00:34:49;;;;;;;20.00;10.57;;;23.60;85.40;;;;;;5092165;28;20043;-68
2023/08/14 00:37:53;;;;;;;16.25;9.38;;;23.60;85.90;;;;;;5091343;28;20039;-68
2023/08/14 00:40:57;;;;;;;15.65;9.65;;;23.50;85.60;;;;;;5093125;28;20047;-68
2023/08/14 00:44:01;;;;;;;13.02;9.40;;;23.50;84.90;;;;;;5092887;28;20043;-68
2023/08/14 00:47:06;;;;;;;15.55;8.70;;;23.50;85.30;;;;;;5092696;28;20055;-68
2023/08/14 00:50:10;;;;;;;10.23;8.57;;;23.40;85.20;;;;;;5092699;28;20039;-68
2023/08/14 00:53:15;;;;;;;9.95;8.93;;;23.40;85.40;;;;;;5092024;28;20062;-68
2023/08/14 00:56:20;;;;;;;11.68;9.07;;;23.40;85.60;;;;;;5092791;28;20047;-68
2023/08/14 00:59:24;;;;;;;12.18;9.13;;;23.30;85.60;;;;;;5092932;28;20062;-68
2023/08/14 01:02:29;;;;;;;9.77;8.77;;;23.40;85.20;;;;;;5092586;28;20158;-68
2023/08/14 01:05:33;;;;;;;13.35;9.75;;;23.40;84.90;;;;;;5092751;28;20051;-68
2023/08/14 01:08:37;;;;;;;10.75;8.88;;;22.40;84.20;;;;;;5092326;28;20113;-68
2023/08/14 01:11:59;;;;;;;12.38;9.35;;;23.70;85.50;;;;;;5092622;28;20293;-68
2023/08/14 01:15:09;;;;;;;14.32;10.18;;;23.50;84.90;;;;;;5092598;28;20059;-68
2023/08/14 01:18:17;;;;;;;13.03;9.63;;;23.50;85.60;;;;;;5091221;28;20067;-68
2023/08/14 01:21:47;;;;;;;17.40;10.23;;;23.60;84.80;;;;;;5092232;28;20039;-68
2023/08/14 01:25:24;;;;;;;12.77;10.57;;;23.50;85.30;;;;;;5091730;28;20039;-68
2023/08/14 01:28:29;;;;;;;15.38;10.02;;;23.20;85.60;;;;;;5092080;28;20059;-67
2023/08/14 01:31:34;;;;;;;19.45;9.63;;;23.10;85.90;;;;;;5091985;28;20043;-67
2023/08/14 01:34:38;;;;;;;12.25;9.18;;;23.20;86.40;;;;;;5091977;28;20043;-67
2023/08/14 01:37:54;;;;;;;14.93;9.38;;;23.10;86.50;;;;;;5091948;28;20039;-68
2023/08/14 01:41:24;;;;;;;10.75;9.30;;;23.20;85.80;;;;;;5091342;28;20051;-68
2023/08/14 01:44:31;;;;;;;13.65;9.10;;;23.00;85.80;;;;;;5092088;28;20050;-68
2023/08/14 01:47:37;;;;;;;11.35;9.30;;;23.10;86.30;;;;;;5091822;28;20047;-68
2023/08/14 01:50:41;;;;;;;12.73;10.40;;;23.00;86.30;;;;;;5091451;28;20047;-67
2023/08/14 01:53:47;;;;;;;16.25;9.98;;;22.80;86.90;;;;;;5091490;28;20051;-68
2023/08/14 01:56:51;;;;;;;18.73;10.27;;;22.90;86.70;;;;;;5090454;28;20047;-68
2023/08/14 01:59:55;;;;;;;18.35;10.85;;;24.10;87.30;;;;;;5090807;28;20054;-67
2023/08/14 02:03:00;;;;;;;14.40;9.77;;;22.90;86.60;;;;;;5091640;28;20404;-68
2023/08/14 02:06:04;;;;;;;11.90;9.10;;;22.80;87.10;;;;;;5091602;28;20055;-68
2023/08/14 02:09:08;;;;;;;11.75;9.05;;;22.80;86.70;;;;;;5091655;28;20059;-67
2023/08/14 02:12:12;;;;;;;14.98;9.70;;;22.10;86.60;;;;;;5091301;28;20046;-67
2023/08/14 02:15:17;;;;;;;15.90;10.15;;;22.80;86.90;;;;;;5090562;28;20047;-67
2023/08/14 02:18:21;;;;;;;13.55;9.80;;;22.80;86.90;;;;;;5091406;28;20047;-68
2023/08/14 02:21:24;;;;;;;13.35;9.90;;;22.00;86.30;;;;;;5091241;28;20047;-68
2023/08/14 02:24:28;;;;;;;12.55;9.95;;;22.80;87.20;;;;;;5091467;28;20046;-68
2023/08/14 02:27:32;;;;;;;16.33;10.52;;;22.90;86.70;;;;;;5090678;28;20059;-67
2023/08/14 02:30:38;;;;;;;15.27;10.27;;;22.70;87.30;;;;;;5091110;28;20035;-68
2023/08/14 02:33:43;;;;;;;15.52;10.05;;;22.60;87.60;;;;;;5091073;28;20047;-68
2023/08/14 02:36:46;;;;;;;12.25;10.20;;;22.50;87.90;;;;;;5090925;28;20039;-67
2023/08/14 02:39:51;;;;;;;13.60;9.93;;;22.60;87.30;;;;;;5091239;28;20043;-68
2023/08/14 02:43:00;;;;;;;14.95;10.35;;;22.60;87.90;;;;;;5091132;28;20079;-68
2023/08/14 02:46:03;;;;;;;12.35;8.90;;;22.70;86.90;;;;;;5089941;28;20388;-68
2023/08/14 02:49:08;;;;;;;10.75;9.23;;;22.60;86.90;;;;;;5090047;28;20047;-68
2023/08/14 02:52:11;;;;;;;16.88;9.93;;;22.70;86.50;;;;;;5090039;28;20077;-68
2023/08/14 02:55:15;;;;;;;12.43;9.40;;;22.60;86.50;;;;;;5089741;28;20039;-68
2023/08/14 02:58:20;;;;;;;12.25;9.93;;;22.60;86.60;;;;;;5089669;28;20055;-67
2023/08/14 03:01:24;;;;;;;14.15;10.23;;;22.60;87.30;;;;;;5092829;28;20060;-68
2023/08/14 03:04:29;;;;;;;11.02;9.65;;;22.50;87.30;;;;;;5095030;28;20043;-68
2023/08/14 03:07:33;;;;;;;14.35;9.77;;;22.50;87.50;;;;;;5093851;28;20050;-68
2023/08/14 03:10:37;;;;;;;15.35;10.10;;;22.00;87.90;;;;;;5094849;28;20043;-68
2023/08/14 03:13:42;;;;;;;14.52;9.93;;;22.30;87.90;;;;;;5094128;28;20209;-68
2023/08/14 03:16:46;;;;;;;10.02;9.02;;;22.30;88.30;;;;;;5094011;28;20043;-68
2023/08/14 03:19:50;;;;;;;14.70;10.00;;;22.20;88.30;;;;;;5093941;28;20051;-68
2023/08/14 03:22:54;;;;;;;14.48;9.52;;;22.10;88.20;;;;;;5094544;28;20079;-68
2023/08/14 03:25:58;;;;;;;13.88;9.55;;;22.10;88.80;;;;;;5093379;28;20051;-67
2023/08/14 03:29:02;;;;;;;12.95;9.38;;;22.00;88.60;;;;;;5093653;28;20039;-68
2023/08/14 03:32:07;;;;;;;11.73;10.10;;;21.90;88.90;;;;;;5093422;28;20039;-68
2023/08/14 03:35:11;;;;;;;17.65;9.65;;;22.00;88.80;;;;;;5093603;28;20051;-68
2023/08/14 03:38:15;;;;;;;15.23;10.20;;;22.30;88.60;;;;;;5093560;28;20090;-68
2023/08/14 03:41:19;;;;;;;16.50;10.27;;;23.30;89.60;;;;;;5093403;28;20035;-68
2023/08/14 03:44:23;;;;;;;13.45;9.57;;;22.10;88.70;;;;;;5093801;28;20051;-68
2023/08/14 03:47:27;;;;;;;12.85;9.90;;;22.10;88.80;;;;;;5093938;28;20055;-68
2023/08/14 03:50:31;;;;;;;18.27;10.20;;;22.10;89.20;;;;;;5094006;28;20491;-68
2023/08/14 03:53:34;;;;;;;16.85;10.65;;;22.10;88.60;;;;;;5093141;28;20039;-68
2023/08/14 03:56:39;;;;;;;16.48;10.57;;;21.90;88.60;;;;;;5093764;28;20031;-68
2023/08/14 03:59:42;;;;;;;16.25;10.75;;;21.70;89.70;;;;;;5094053;28;20046;-68
2023/08/14 04:02:48;;;;;;;17.13;10.73;;;21.60;89.80;;;;;;5092922;28;20043;-68
2023/08/14 04:05:58;;;;;;;14.00;10.52;;;21.60;89.80;;;;;;5093656;28;20047;-68
2023/08/14 04:09:03;;;;;;;17.02;12.20;;;21.60;90.00;;;;;;5093741;28;20055;-67
2023/08/14 04:12:09;;;;;;;21.45;11.77;;;21.30;89.10;;;;;;5092284;28;20573;-68
2023/08/14 04:15:16;;;;;;;13.32;11.02;;;21.70;89.70;;;;;;5093867;28;20047;-68
2023/08/14 04:18:20;;;;;;;14.20;9.75;;;21.70;89.10;;;;;;5093607;28;20043;-68
2023/08/14 04:21:24;;;;;;;17.65;9.50;;;22.80;89.30;;;;;;5093672;28;20507;-68
2023/08/14 04:24:28;;;;;;;11.77;9.40;;;21.60;89.10;;;;;;5092685;28;20051;-68
2023/08/14 04:27:37;;;;;;;9.98;8.95;;;21.60;88.10;;;;;;5093045;28;20075;-67
2023/08/14 04:30:42;;;;;;;18.73;10.07;;;21.50;87.80;;;;;;5092652;28;20047;-68
2023/08/14 04:33:46;;;;;;;11.88;10.02;;;21.40;87.80;;;;;;5092404;28;20553;-68
2023/08/14 04:36:50;;;;;;;13.00;9.07;;;21.50;88.50;;;;;;5093107;28;20039;-68
2023/08/14 04:39:55;;;;;;;15.52;9.02;;;21.50;88.40;;;;;;5092256;28;20046;-68
2023/08/14 04:42:58;;;;;;;17.30;9.05;;;21.60;88.00;;;;;;5092170;28;20392;-68
2023/08/14 04:46:09;;;;;;;15.98;8.95;;;21.70;87.70;;;;;;5092939;28;20515;-68
2023/08/14 04:49:13;;;;;;;18.25;8.05;;;21.60;86.30;;;;;;5092163;28;20043;-68
2023/08/14 04:52:20;;;;;;;17.00;8.70;;;21.70;87.30;;;;;;5092608;28;20303;-68
2023/08/14 04:55:24;;;;;;;13.65;8.73;;;21.90;86.90;;;;;;5091815;28;20499;-68
2023/08/14 04:58:29;;;;;;;10.90;7.80;;;22.10;86.70;;;;;;5092002;28;20039;-68
2023/08/14 05:01:33;;;;;;;18.08;7.90;;;24.10;80.90;;;;;;5092263;28;20058;-68
2023/08/14 05:04:37;;;;;;;12.07;8.48;;;25.10;78.40;;;;;;5092037;28;20043;-68
2023/08/14 05:07:41;;;;;;;16.50;9.30;;;25.20;78.50;;;;;;5092405;28;20050;-68
2023/08/14 05:10:50;;;;;;;22.77;9.52;;;26.10;77.10;;;;;;5092502;28;20043;-68
2023/08/14 05:13:55;;;;;;;13.45;8.13;;;27.40;74.10;;;;;;5091621;28;20050;-69
2023/08/14 05:16:58;;;;;;;14.63;9.05;;;28.10;72.50;;;;;;5092532;28;20039;-68
2023/08/14 05:20:03;;;;;;;17.33;8.52;;;28.80;71.00;;;;;;5091746;28;20047;-68
2023/08/14 05:23:06;;;;;;;14.93;8.40;;;28.80;71.30;;;;;;5091311;28;20491;-68
2023/08/14 05:26:10;;;;;;;18.95;8.80;;;29.60;69.70;;;;;;5090993;28;20075;-68
2023/08/14 05:29:15;;;;;;;15.75;8.65;;;30.10;69.50;;;;;;5092075;28;20039;-68
2023/08/14 05:32:18;;;;;;;19.40;9.18;;;30.40;68.90;;;;;;5092277;28;20047;-68
2023/08/14 05:35:25;;;;;;;16.38;9.30;;;30.10;69.00;;;;;;5091921;28;20043;-68
2023/08/14 05:38:28;;;;;;;17.50;10.77;;;29.60;69.90;;;;;;5091869;28;20062;-68
2023/08/14 05:41:32;;;;;;;23.95;10.93;;;29.00;70.90;;;;;;5092006;28;20043;-68
2023/08/14 05:44:36;;;;;;;19.50;10.18;;;28.60;71.40;;;;;;5092030;28;20042;-68
2023/08/14 05:47:40;;;;;;;28.33;11.73;;;28.30;71.70;;;;;;5091479;28;20055;-68
2023/08/14 05:50:44;;;;;;;22.27;10.95;;;28.10;72.90;;;;;;5091832;28;20055;-68
2023/08/14 05:53:48;;;;;;;25.60;10.50;;;28.00;73.90;;;;;;5091906;28;20066;-68
2023/08/14 05:56:52;;;;;;;22.92;10.50;;;28.00;73.40;;;;;;5091570;28;20103;-68
2023/08/14 05:59:56;;;;;;;19.05;9.80;;;28.00;73.20;;;;;;5091686;28;20047;-68
2023/08/14 06:03:00;;;;;;;23.33;9.82;;;28.10;73.80;;;;;;5091378;28;20415;-68
2023/08/14 06:06:04;;;;;;;23.77;9.05;;;28.00;72.80;;;;;;5091294;28;20396;-68
2023/08/14 06:09:08;;;;;;;24.00;7.18;;;27.80;72.60;;;;;;5091576;28;20062;-68
2023/08/14 06:12:12;;;;;;;13.80;6.68;;;27.80;72.20;;;;;;5091579;28;20047;-67
2023/08/14 06:15:18;;;;;;;12.15;6.07;;;28.10;72.10;;;;;;5091518;28;20050;-68
2023/08/14 06:18:22;;;;;;;9.80;5.95;;;28.30;70.40;;;;;;5091439;28;20590;-68
2023/08/14 06:21:26;;;;;;;12.82;5.90;;;28.10;70.10;;;;;;5091456;28;20051;-68
2023/08/14 06:24:30;;;;;;;14.57;5.85;;;28.10;70.10;;;;;;5091197;28;20035;-68
2023/08/14 06:27:34;;;;;;;17.83;7.38;;;28.20;69.80;;;;;;5090768;28;20518;-68
2023/08/14 06:30:38;;;;;;;20.02;6.95;;;28.30;71.50;;;;;;5091322;28;20036;-68
2023/08/14 06:33:44;;;;;;;15.23;6.13;;;28.50;70.50;;;;;;5091277;28;20067;-68
2023/08/14 06:36:48;;;;;;;12.95;6.20;;;28.60;70.00;;;;;;5090434;28;20043;-68
2023/08/14 06:39:52;;;;;;;17.27;7.07;;;28.80;68.70;;;;;;5091191;28;20035;-68
2023/08/14 06:42:56;;;;;;;12.85;6.13;;;29.00;69.00;;;;;;5090893;28;20039;-68
2023/08/14 06:46:00;;;;;;;16.90;6.67;;;29.20;69.20;;;;;;5090705;28;20039;-68
2023/08/14 06:49:04;;;;;;;14.40;5.75;;;29.40;69.90;;;;;;5090797;28;20425;-68
2023/08/14 06:52:08;;;;;;;15.25;5.45;;;29.60;67.80;;;;;;5091064;28;20031;-68
2023/08/14 06:55:12;;;;;;;12.98;5.32;;;29.80;67.50;;;;;;5090845;28;20043;-68
2023/08/14 06:58:15;;;;;;;16.70;6.13;;;30.10;67.20;;;;;;5090676;28;20562;-68
2023/08/14 07:01:20;;;;;;;16.35;5.40;;;30.00;67.80;;;;;;5091053;28;20495;-68
2023/08/14 07:04:24;;;;;;;19.85;7.45;;;30.10;67.30;;;;;;5090958;28;20039;-67
2023/08/14 07:07:28;;;;;;;15.48;5.50;;;30.20;67.30;;;;;;5090519;28;20059;-68
2023/08/14 07:10:31;;;;;;;14.60;5.30;;;30.30;67.10;;;;;;5090858;28;20047;-68
2023/08/14 07:13:35;;;;;;;9.73;5.18;;;30.40;66.60;;;;;;5090763;28;20498;-68
2023/08/14 07:16:40;;;;;;;12.02;5.07;;;30.80;66.70;;;;;;5090757;28;20055;-68
2023/08/14 07:19:44;;;;;;;19.67;5.70;;;31.00;65.80;;;;;;5090964;28;20463;-68
2023/08/14 07:22:48;;;;;;;13.25;4.72;;;31.40;65.60;;;;;;5090807;28;20051;-68
2023/08/14 07:25:52;;;;;;;20.98;5.63;;;31.80;65.30;;;;;;5090470;28;20063;-68
2023/08/14 07:28:55;;;;;;;13.95;5.75;;;32.10;65.10;;;;;;5090588;28;20055;-68
2023/08/14 07:31:59;;;;;;;17.98;5.53;;;32.30;63.70;;;;;;5090667;28;20031;-68
2023/08/14 07:35:04;;;;;;;17.23;5.75;;;32.30;63.60;;;;;;5090828;28;20062;-68
2023/08/14 07:38:08;;;;;;;12.05;4.72;;;32.20;63.60;;;;;;5090436;28;20043;-68
2023/08/14 07:41:12;;;;;;;9.55;4.57;;;32.40;62.70;;;;;;5090562;28;20507;-68
2023/08/14 07:44:16;;;;;;;12.02;5.70;;;32.60;62.10;;;;;;5090547;28;20050;-68
2023/08/14 07:47:20;;;;;;;15.05;5.72;;;32.50;61.80;;;;;;5091118;28;20077;-68
2023/08/14 07:50:24;;;;;;;13.88;5.97;;;32.50;63.30;;;;;;5094104;28;20039;-68
2023/08/14 07:53:28;;;;;;;17.05;5.50;;;32.60;62.10;;;;;;5093899;28;20043;-68
2023/08/14 07:56:31;;;;;;;16.35;5.72;;;32.60;62.40;;;;;;5093655;28;20046;-68
2023/08/14 07:59:35;;;;;;;12.00;5.80;;;32.80;62.60;;;;;;5093976;28;20039;-68
2023/08/14 08:02:39;;;;;;;14.88;6.10;;;32.90;62.90;;;;;;5093756;28;20059;-68
2023/08/14 08:05:43;;;;;;;13.52;6.20;;;32.90;62.80;;;;;;5093882;28;20062;-68
2023/08/14 08:08:47;;;;;;;9.15;5.15;;;33.10;61.80;;;;;;5093490;28;20051;-68
2023/08/14 08:11:51;;;;;;;13.35;5.13;;;33.00;61.80;;;;;;5093378;28;20408;-68
2023/08/14 08:14:56;;;;;;;10.25;4.43;;;33.30;62.40;;;;;;5093550;28;20047;-68
2023/08/14 08:17:59;;;;;;;9.25;4.80;;;33.40;60.90;;;;;;5093413;28;20051;-68
2023/08/14 08:21:04;;;;;;;8.82;4.40;;;33.20;60.70;;;;;;5093250;28;20134;-68
2023/08/14 08:24:08;;;;;;;12.18;4.30;;;33.40;61.00;;;;;;5093430;28;20510;-68
2023/08/14 08:27:12;;;;;;;8.95;3.65;;;33.30;60.40;;;;;;5093145;28;20055;-68
2023/08/14 08:30:16;;;;;;;9.10;3.97;;;33.40;59.70;;;;;;5093450;28;20047;-68
2023/08/14 08:33:20;;;;;;;13.88;3.70;;;33.60;59.30;;;;;;5093195;28;20278;-68
2023/08/14 08:36:23;;;;;;;7.57;3.83;;;33.70;58.30;;;;;;5093140;28;20051;-68
2023/08/14 08:39:27;;;;;;;11.77;3.67;;;33.70;58.40;;;;;;5093039;28;20047;-68
2023/08/14 08:42:31;;;;;;;7.93;3.25;;;33.80;58.50;;;;;;5093068;28;20047;-69
2023/08/14 08:45:38;;;;;;;5.93;2.63;;;33.60;57.00;;;;;;5093032;28;20043;-68
2023/08/14 08:48:42;;;;;;;7.85;2.75;;;33.40;56.40;;;;;;5092914;28;20055;-68
2023/08/14 08:51:47;;;;;;;5.35;2.38;;;33.30;56.40;;;;;;5092534;28;20130;-68
2023/08/14 08:54:52;;;;;;;4.97;2.80;;;33.50;56.10;;;;;;5093090;28;20051;-68
2023/08/14 08:57:57;;;;;;;4.53;2.70;;;33.60;56.20;;;;;;5092382;28;20102;-68
2023/08/14 09:01:03;;;;;;;5.30;2.63;;;33.60;56.60;;;;;;5092742;28;20051;-68
2023/08/14 09:04:08;;;;;;;6.03;2.72;;;33.30;56.30;;;;;;5092590;28;20051;-68
2023/08/14 09:07:12;;;;;;;8.30;2.88;;;32.60;57.20;;;;;;5092424;28;20043;-68
2023/08/14 09:10:16;;;;;;;8.80;3.13;;;32.50;57.60;;;;;;5092304;28;20047;-68
2023/08/14 09:13:20;;;;;;;4.80;3.05;;;32.50;58.10;;;;;;5092545;28;20043;-69
2023/08/14 09:16:27;;;;;;;4.28;3.03;;;32.40;57.20;;;;;;5092022;28;20522;-68
2023/08/14 09:19:31;;;;;;;9.95;3.40;;;32.30;57.90;;;;;;5092040;28;20035;-68
2023/08/14 09:22:38;;;;;;;5.53;3.03;;;32.50;57.90;;;;;;5092827;28;20055;-68
2023/08/14 09:25:46;;;;;;;7.10;3.58;;;32.50;57.70;;;;;;5092119;28;20035;-68
2023/08/14 09:28:52;;;;;;;6.38;3.28;;;32.50;57.50;;;;;;5092132;28;20047;-69
2023/08/14 09:31:59;;;;;;;4.65;2.60;;;32.50;56.50;;;;;;5091728;28;20495;-69
2023/08/14 09:35:03;;;;;;;3.25;2.50;;;32.40;55.50;;;;;;5091890;28;20047;-68
2023/08/14 09:38:07;;;;;;;8.38;3.30;;;32.10;56.00;;;;;;5092144;28;20205;-68
2023/08/14 09:41:12;;;;;;;11.27;3.33;;;32.20;56.10;;;;;;5092242;28;20050;-68
2023/08/14 09:44:20;;;;;;;4.85;2.92;;;32.20;57.20;;;;;;5092119;28;20043;-68
2023/08/14 09:47:24;;;;;;;9.32;3.53;;;32.30;56.30;;;;;;5091415;28;20055;-66
2023/08/14 09:50:30;;;;;;;6.57;3.13;;;32.50;56.80;;;;;;5092203;28;20372;-66
2023/08/14 09:53:43;;;;;;;8.27;3.70;;;32.60;57.00;;;;;;5091449;28;20047;-67
2023/08/14 09:56:47;;;;;;;12.32;4.35;;;32.60;54.80;;;;;;5091341;28;20043;-66
2023/08/14 09:59:52;;;;;;;8.40;3.83;;;32.70;55.20;;;;;;5091779;28;20051;-66
2023/08/14 10:02:58;;;;;;;7.07;4.28;;;32.70;55.30;;;;;;5091434;28;20039;-66
2023/08/14 10:06:03;;;;;;;7.20;4.05;;;32.70;55.00;;;;;;5091453;28;20047;-66
2023/08/14 10:09:08;;;;;;;7.97;4.00;;;32.70;55.20;;;;;;5091108;28;20050;-68
2023/08/14 10:12:13;;;;;;;8.88;4.90;;;32.90;55.50;;;;;;5090743;28;20118;-66
2023/08/14 10:15:24;;;;;;;7.10;4.30;;;32.90;56.00;;;;;;5091249;28;20051;-66
2023/08/14 10:18:29;;;;;;;9.43;5.50;;;32.90;55.50;;;;;;5091054;28;20050;-66
2023/08/14 10:21:35;;;;;;;8.20;5.00;;;32.80;54.60;;;;;;5091060;28;20043;-66
2023/08/14 10:24:40;;;;;;;6.65;3.95;;;32.70;53.70;;;;;;5091050;28;20585;-68
2023/08/14 10:27:44;;;;;;;7.20;3.78;;;32.70;52.10;;;;;;5090554;28;20507;-68
2023/08/14 10:30:49;;;;;;;7.05;4.00;;;32.60;53.80;;;;;;5091093;28;20059;-68
2023/08/14 10:33:54;;;;;;;9.93;5.10;;;32.80;54.30;;;;;;5090744;28;20039;-68
2023/08/14 10:36:58;;;;;;;9.13;4.60;;;32.90;55.20;;;;;;5091017;28;20050;-69
2023/08/14 10:40:22;;;;;;;13.38;4.50;;;33.10;54.90;;;;;;5091243;28;20047;-69
2023/08/14 10:43:28;;;;;;;8.88;4.80;;;32.80;54.50;;;;;;5090847;28;20042;-68
2023/08/14 10:46:36;;;;;;;13.25;5.20;;;32.80;54.90;;;;;;5090925;28;20055;-66
2023/08/14 10:49:44;;;;;;;9.43;5.38;;;32.70;55.50;;;;;;5090051;28;20130;-66
2023/08/14 10:52:51;;;;;;;6.45;4.30;;;32.70;55.00;;;;;;5090697;28;20043;-66
2023/08/14 10:55:55;;;;;;;7.47;4.28;;;32.80;56.80;;;;;;5090549;28;20043;-66
2023/08/14 10:58:59;;;;;;;8.13;4.32;;;33.00;58.90;;;;;;5090582;28;20048;-66
2023/08/14 11:02:24;;;;;;;8.35;4.57;;;33.00;59.30;;;;;;5090928;28;20047;-66
2023/08/14 11:05:36;;;;;;;7.78;4.13;;;33.00;59.10;;;;;;5090689;28;20506;-68
2023/08/14 11:08:45;;;;;;;6.57;4.30;;;33.10;59.50;;;;;;5090590;28;20088;-68
2023/08/14 11:11:48;;;;;;;7.40;3.75;;;33.10;59.80;;;;;;5090588;28;20041;-68
2023/08/14 11:14:57;;;;;;;4.85;3.95;;;33.10;59.80;;;;;;5090698;28;20047;-68
2023/08/14 11:18:02;;;;;;;10.32;4.25;;;33.00;59.40;;;;;;5090429;28;20055;-69
2023/08/14 11:21:06;;;;;;;14.05;4.30;;;33.00;60.40;;;;;;5090870;28;20047;-68
2023/08/14 11:24:11;;;;;;;7.13;4.70;;;33.00;61.00;;;;;;5094577;28;20039;-67
2023/08/14 11:27:15;;;;;;;4.95;4.22;;;32.90;60.00;;;;;;5094131;28;20052;-67
2023/08/14 11:30:24;;;;;;;6.63;4.20;;;32.90;61.40;;;;;;5094652;28;20062;-67
2023/08/14 11:33:30;;;;;;;6.55;4.30;;;32.80;61.10;;;;;;5094241;28;20035;-67
2023/08/14 11:36:34;;;;;;;12.48;4.55;;;32.80;61.00;;;;;;5094467;28;20412;-68
2023/08/14 11:39:38;;;;;;;10.10;4.43;;;32.80;61.00;;;;;;5094142;28;20047;-68
2023/08/14 11:42:43;;;;;;;5.18;4.63;;;32.80;61.30;;;;;;5094520;28;20039;-68
2023/08/14 11:45:47;;;;;;;9.50;4.90;;;32.80;62.30;;;;;;5094154;28;20289;-68
2023/08/14 11:48:52;;;;;;;7.05;4.65;;;32.80;62.60;;;;;;5094043;28;20051;-68
2023/08/14 11:51:55;;;;;;;9.05;5.53;;;32.80;63.00;;;;;;5094032;28;20114;-67
2023/08/14 11:55:01;;;;;;;7.75;4.55;;;32.90;61.90;;;;;;5094248;28;20400;-67
2023/08/14 11:58:04;;;;;;;10.10;4.88;;;32.90;62.90;;;;;;5093895;28;20416;-67
2023/08/14 12:01:09;;;;;;;6.07;4.60;;;32.90;64.10;;;;;;5093803;28;20395;-66
2023/08/14 12:04:13;;;;;;;6.70;4.28;;;32.80;63.70;;;;;;5094088;28;20495;-67
2023/08/14 12:07:18;;;;;;;7.05;4.88;;;32.70;65.20;;;;;;5093864;28;20490;-67
2023/08/14 12:10:22;;;;;;;13.95;4.85;;;32.60;65.20;;;;;;5093909;28;20059;-68
2023/08/14 12:13:32;;;;;;;9.48;4.95;;;32.60;65.90;;;;;;5093838;28;20376;-67
2023/08/14 12:16:39;;;;;;;11.88;5.07;;;32.60;65.10;;;;;;5093513;28;20043;-67
2023/08/14 12:19:52;;;;;;;5.20;4.35;;;32.50;66.00;;;;;;5093884;28;20043;-67
2023/08/14 12:23:13;;;;;;;9.13;4.53;;;32.50;66.30;;;;;;5093505;28;20047;-67
2023/08/14 12:26:17;;;;;;;5.60;4.95;;;32.40;66.50;;;;;;5093197;28;20079;-67
2023/08/14 12:29:21;;;;;;;11.52;5.22;;;32.40;66.20;;;;;;5093910;28;20055;-68
2023/08/14 12:32:26;;;;;;;9.88;5.13;;;32.30;67.60;;;;;;5093092;28;20056;-67
2023/08/14 12:35:30;;;;;;;6.65;5.00;;;32.30;68.00;;;;;;5093102;28;20047;-67
2023/08/14 12:38:34;;;;;;;7.55;4.93;;;32.20;68.40;;;;;;5093080;28;20051;-67
2023/08/14 12:41:38;;;;;;;8.80;5.28;;;32.20;68.60;;;;;;5093082;28;20051;-67
2023/08/14 12:44:42;;;;;;;7.93;5.10;;;32.20;69.40;;;;;;5092934;28;20044;-67
2023/08/14 12:47:46;;;;;;;7.25;4.90;;;32.20;69.00;;;;;;5092770;28;20047;-67
2023/08/14 12:50:50;;;;;;;10.02;4.95;;;32.20;68.70;;;;;;5092810;28;20039;-68
2023/08/14 12:53:54;;;;;;;7.38;4.63;;;32.10;67.50;;;;;;5092846;28;20039;-67
2023/08/14 12:56:58;;;;;;;7.45;4.30;;;32.00;67.10;;;;;;5093330;28;20047;-67
2023/08/14 13:00:04;;;;;;;9.20;4.70;;;32.00;68.90;;;;;;5092582;28;20043;-68
2023/08/14 13:03:08;;;;;;;10.63;4.40;;;31.90;68.80;;;;;;5092686;28;20043;-69
2023/08/14 13:06:12;;;;;;;7.38;4.80;;;31.90;69.90;;;;;;5092937;28;20063;-69
2023/08/14 13:09:16;;;;;;;12.27;4.65;;;31.90;70.20;;;;;;5092664;28;20055;-67
2023/08/14 13:12:20;;;;;;;13.55;5.03;;;31.80;69.70;;;;;;5092809;28;20439;-68
2023/08/14 13:15:25;;;;;;;7.43;4.47;;;31.80;69.50;;;;;;5092721;28;20047;-67
2023/08/14 13:18:29;;;;;;;4.70;3.92;;;31.80;70.10;;;;;;5092341;28;20448;-69
2023/08/14 13:21:33;;;;;;;7.05;4.40;;;31.70;70.00;;;;;;5092399;28;20055;-67
2023/08/14 13:24:37;;;;;;;11.10;4.72;;;31.70;69.40;;;;;;5091940;28;20510;-67
2023/08/14 13:27:41;;;;;;;7.82;4.40;;;31.70;69.60;;;;;;5091772;28;20055;-67
2023/08/14 13:30:45;;;;;;;9.13;4.32;;;31.60;69.60;;;;;;5091991;28;20388;-67
2023/08/14 13:33:50;;;;;;;14.75;4.53;;;31.60;68.80;;;;;;5091981;28;20044;-67
2023/08/14 13:36:54;;;;;;;6.97;4.45;;;31.60;68.90;;;;;;5092010;28;20055;-67
2023/08/14 13:39:57;;;;;;;5.30;4.13;;;31.50;69.40;;;;;;5092048;28;20502;-67
2023/08/14 13:43:02;;;;;;;7.60;4.30;;;31.40;70.10;;;;;;5092107;28;20055;-67
2023/08/14 13:46:06;;;;;;;10.80;4.60;;;31.40;70.20;;;;;;5091783;28;20043;-67
2023/08/14 13:49:10;;;;;;;8.57;5.00;;;31.40;69.30;;;;;;5091565;28;20309;-67
2023/08/14 13:52:13;;;;;;;5.50;4.50;;;31.40;69.90;;;;;;5091910;28;20042;-67
2023/08/14 13:55:17;;;;;;;6.78;4.07;;;31.40;70.60;;;;;;5091853;28;20114;-67
2023/08/14 13:58:21;;;;;;;6.25;4.68;;;31.40;72.50;;;;;;5091689;28;20035;-67
2023/08/14 14:01:26;;;;;;;7.45;4.35;;;31.40;72.10;;;;;;5091747;28;20062;-67
2023/08/14 14:04:29;;;;;;;7.80;4.53;;;31.40;71.50;;;;;;5091814;28;20043;-68
2023/08/14 14:07:33;;;;;;;11.48;5.25;;;31.40;72.00;;;;;;5091702;28;20051;-67
2023/08/14 14:10:37;;;;;;;5.53;5.03;;;31.30;71.90;;;;;;5091328;28;20051;-67
2023/08/14 14:13:41;;;;;;;5.97;4.03;;;31.20;72.00;;;;;;5091531;28;20039;-68
2023/08/14 14:16:54;;;;;;;12.45;4.78;;;31.20;71.20;;;;;;5091496;28;20442;-68
2023/08/14 14:20:00;;;;;;;6.60;4.90;;;31.10;70.70;;;;;;5091078;28;20494;-68
2023/08/14 14:23:04;;;;;;;7.93;4.80;;;31.10;70.10;;;;;;5091116;28;20392;-67
2023/08/14 14:26:08;;;;;;;9.10;4.60;;;31.00;70.10;;;;;;5090871;28;20047;-68
2023/08/14 14:29:12;;;;;;;5.45;4.60;;;31.00;70.30;;;;;;5091032;28;20055;-68
2023/08/14 14:32:16;;;;;;;8.75;5.00;;;31.00;70.20;;;;;;5091081;28;20510;-68
2023/08/14 14:35:21;;;;;;;5.63;4.57;;;30.90;69.50;;;;;;5091070;28;20047;-68
2023/08/14 14:38:24;;;;;;;8.50;4.78;;;30.80;70.20;;;;;;5090953;28;20043;-68
2023/08/14 14:41:29;;;;;;;6.00;5.25;;;30.80;70.00;;;;;;5091076;28;20051;-68
2023/08/14 14:44:33;;;;;;;8.77;4.18;;;30.80;70.00;;;;;;5091397;28;20484;-68
2023/08/14 14:47:37;;;;;;;4.85;3.92;;;30.80;69.80;;;;;;5090902;28;20541;-68
2023/08/14 14:50:41;;;;;;;4.70;4.30;;;30.70;69.50;;;;;;5090072;28;20047;-68
2023/08/14 14:53:45;;;;;;;9.25;4.28;;;30.70;69.40;;;;;;5090984;28;20035;-68
2023/08/14 14:56:49;;;;;;;6.82;4.63;;;30.70;69.70;;;;;;5093759;28;20043;-68
2023/08/14 14:59:53;;;;;;;7.80;4.63;;;30.70;70.10;;;;;;5097805;28;20039;-68
2023/08/14 15:02:57;;;;;;;6.88;4.70;;;30.60;69.80;;;;;;5097444;28;20035;-68
2023/08/14 15:06:01;;;;;;;7.07;4.20;;;30.60;69.60;;;;;;5097235;28;20051;-68
2023/08/14 15:09:06;;;;;;;12.27;5.03;;;30.60;69.70;;;;;;5097453;28;20052;-68
2023/08/14 15:12:10;;;;;;;5.93;4.68;;;30.60;69.90;;;;;;5097547;28;20051;-68
2023/08/14 15:15:14;;;;;;;10.50;4.97;;;30.50;70.10;;;;;;5097619;28;20043;-68
2023/08/14 15:18:18;;;;;;;13.00;5.18;;;30.50;70.70;;;;;;5097359;28;20043;-68
2023/08/14 15:21:22;;;;;;;8.25;4.38;;;30.50;70.40;;;;;;5097588;28;20035;-68
2023/08/14 15:24:26;;;;;;;5.32;4.13;;;30.50;70.50;;;;;;5097486;28;20392;-69
2023/08/14 15:27:30;;;;;;;11.10;4.77;;;30.40;70.80;;;;;;5096855;28;20059;-69
2023/08/14 15:30:38;;;;;;;9.00;4.85;;;30.40;70.30;;;;;;5097215;28;20051;-68
2023/08/14 15:33:42;;;;;;;20.35;5.28;;;30.40;69.90;;;;;;5097343;28;20043;-69
2023/08/14 15:36:46;;;;;;;6.47;4.72;;;30.40;70.80;;;;;;5097228;28;20067;-69
2023/08/14 15:39:50;;;;;;;6.03;4.75;;;30.30;70.00;;;;;;5097252;28;20043;-69
2023/08/14 15:42:54;;;;;;;12.90;4.80;;;30.30;69.90;;;;;;5097800;28;20054;-68
2023/08/14 15:46:03;;;;;;;6.50;4.20;;;30.20;69.70;;;;;;5097090;28;20043;-68
2023/08/14 15:49:07;;;;;;;5.85;4.47;;;30.20;69.20;;;;;;5096995;28;20375;-69
2023/08/14 15:52:15;;;;;;;6.88;4.60;;;30.10;69.20;;;;;;5097114;28;20039;-68
2023/08/14 15:55:19;;;;;;;5.68;4.15;;;30.10;68.80;;;;;;5097217;28;20076;-68